Bolton, Canada
Current Conditions -  °F | °C
As of 3:00 AM on Tuesday 27 Jan 2015 (Local Time) from CYYZ Reporting Station
Light Snow Light Snow  
Wind Chill: -4°   Ceiling: 9500
Heat Index: 10°   Visibility: 6mi
Dew Point:   Wind: 12mph
Humidity: 79%   Direction: 10°N
Pressure: 30"   Gusts: NA
Location:  43.88°N, 79.73°W
Report Text: CYYZ 270800Z 01010KT 6SM -SN FEW062 OVC095 M12/M15 A3000 RMK SC2AC6 SLP170
Loading
Personal Weather Stations






























Interactive Weather Map New forecast layout! Learn more

10-Day Weather Forecast

Advertisements
Track Severe Weather on mobile